This is the latest recevied weather packets stored in our database for station/object KK7NDB. If no packets are shown the sender has not sent any weather packets the latest 10 day(s).
| Time | Temp. | Humidity | Pressure | Rain* | Wind** | Luminosity | Snow |
|---|---|---|---|---|---|---|---|
| 1777507841 | 13.89° C | 27% | 1006.9 hPa | 0 mm | - | 194 W/m² | - |
| 1777507235 | 14.44° C | 28% | 1006.8 hPa | 0 mm | - | 151 W/m² | - |
| 1777506933 | 15.56° C | 26% | 1006.7 hPa | 0 mm | - | 299 W/m² | - |
| 1777506630 | 13.89° C | 27% | 1006.6 hPa | 0 mm | - | 383 W/m² | - |
| 1777506326 | 13.89° C | 29% | 1006.7 hPa | 0 mm | - | 221 W/m² | - |
| 1777501472 | 13.33° C | 29% | 1007.2 hPa | 0 mm | - | 176 W/m² | - |
| 1777501168 | 13.33° C | 29% | 1006.9 hPa | 0 mm | - | 176 W/m² | - |
| 1777500564 | 15° C | 33% | 1006.6 hPa | 0 mm | - | 274 W/m² | - |
| 1777499957 | 15° C | 33% | 1007.1 hPa | 0 mm | - | 274 W/m² | - |
| 1777499654 | 15° C | 33% | 1007.1 hPa | 0 mm | - | 274 W/m² | - |
| 1777498744 | 15° C | 33% | 1007.3 hPa | 0 mm | - | 274 W/m² | - |
| 1777498441 | 15° C | 33% | 1007.1 hPa | 0 mm | - | 274 W/m² | - |
| 1777498138 | 13.89° C | 31% | 1007.4 hPa | 0 mm | - | 298 W/m² | - |
| 1777497531 | 13.89° C | 31% | 1007.3 hPa | 0 mm | - | 298 W/m² | - |
| 1777497227 | 13.89° C | 31% | 1007.3 hPa | 0 mm | - | 298 W/m² | - |
| 1777496925 | 13.89° C | 31% | 1007.4 hPa | 0 mm | - | 298 W/m² | - |
| 1777496621 | 13.89° C | 31% | 1007.4 hPa | 0 mm | - | 298 W/m² | - |
| 1777496318 | 13.89° C | 31% | 1007.4 hPa | 0 mm | - | 298 W/m² | - |
| 1777495710 | 12.22° C | 35% | 1007.4 hPa | 0 mm | - | 914 W/m² | - |
| 1777494800 | 12.22° C | 35% | 1007.8 hPa | 0 mm | - | 914 W/m² | - |
| 1777494497 | 12.22° C | 35% | 1007.7 hPa | 0 mm | - | 914 W/m² | - |
| 1777494194 | 12.22° C | 32% | 1007.7 hPa | 0 mm | - | 534 W/m² | - |
| 1777493891 | 11.67° C | 31% | 1008 hPa | 0 mm | - | 552 W/m² | - |
| 1777493287 | 13.89° C | 31% | 1007.8 hPa | 0 mm | - | 253 W/m² | - |
| 1777492982 | 13.33° C | 33% | 1007.8 hPa | 0 mm | - | 260 W/m² | - |
* Rain latest hour (hover to see other rain measurements)
** Current wind speed in m/s (hover to see current wind gust speed)